Terminal Aerodrome Forecast
Issued by NWS

Home | Current Version | Previous Version | Text Only | Print | Product List | Glossary On
Versions: 1 2 3 4 5 6 7 8 9 10 11 12 13 14 15 16
960
FTUS41 KPBZ 172329
TAFBVI
TAF
KBVI 172329Z 1800/1824 25007KT P6SM VCSH OVC035
     FM180300 26007KT P6SM OVC015
     FM180400 26007KT P6SM VCSH OVC008
     FM181800 27009KT P6SM OVC010
      AMD NOT SKED 1802/1812=

USA.gov is the U.S. government's official web portal to all federal, state and local government web resources and services.